Time;durP1;ratioP1;P1;durP2;ratioP2;P2;SDS_P1;SDS_P2;PMS_P1;PMS_P2;Temp;Humidity;BMP_temperature;BMP_pressure;BME280_temperature;BME280_humidity;BME280_pressure;Samples;Min_cycle;Max_cycle;Signal;HPM_P1;HPM_P2
2023/07/04 00:01:21;;;;;;;8.30;7.00;;;;;;;18.89;100.00;100874.33;105526;1258;73823;-42
2023/07/04 00:03:51;;;;;;;9.60;7.10;;;;;;;18.83;100.00;100870.45;105508;1262;62923;-45
2023/07/04 00:06:19;;;;;;;13.80;7.50;;;;;;;18.77;100.00;100866.16;105496;1262;71404;-45
2023/07/04 00:08:49;;;;;;;10.00;6.70;;;;;;;18.73;100.00;100867.73;105490;1259;60515;-46
2023/07/04 00:11:19;;;;;;;8.00;7.20;;;;;;;18.70;100.00;100868.94;105501;1257;60353;-44
2023/07/04 00:13:47;;;;;;;9.50;7.30;;;;;;;18.66;100.00;100866.84;105501;1257;72890;-43
2023/07/04 00:16:15;;;;;;;8.20;7.50;;;;;;;18.60;100.00;100863.08;105523;1262;64514;-44
2023/07/04 00:18:44;;;;;;;11.50;7.00;;;;;;;18.56;100.00;100858.20;105473;1257;71630;-45
2023/07/04 00:21:14;;;;;;;12.70;7.30;;;;;;;18.54;100.00;100854.97;105484;1262;60540;-44
2023/07/04 00:23:45;;;;;;;8.50;7.60;;;;;;;18.51;100.00;100850.72;105553;1260;60884;-43
2023/07/04 00:26:16;;;;;;;8.10;7.30;;;;;;;18.50;100.00;100846.39;105696;1254;73837;-44
2023/07/04 00:28:45;;;;;;;9.20;7.60;;;;;;;18.48;100.00;100838.28;105740;1258;64056;-42
2023/07/04 00:31:17;;;;;;;8.10;7.30;;;;;;;18.44;100.00;100836.02;105647;1258;71475;-49
2023/07/04 00:33:45;;;;;;;9.40;6.70;;;;;;;18.42;100.00;100830.20;105572;1258;60493;-42
2023/07/04 00:36:16;;;;;;;11.20;7.00;;;;;;;18.39;100.00;100826.46;105657;1255;60411;-47
2023/07/04 00:38:45;;;;;;;13.60;6.90;;;;;;;18.36;100.00;100826.05;105715;1259;73797;-43
2023/07/04 00:41:24;;;;;;;9.50;6.80;;;;;;;18.34;100.00;100820.05;105687;1257;64004;-43
2023/07/04 00:44:11;;;;;;;12.90;7.10;;;;;;;18.31;100.00;100815.98;105647;1256;71412;-41
2023/07/04 00:46:54;;;;;;;7.30;6.50;;;;;;;18.28;100.00;100814.02;105657;1258;60466;-42
2023/07/04 00:49:43;;;;;;;7.60;6.40;;;;;;;18.26;100.00;100812.73;105678;1257;60329;-43
2023/07/04 00:52:23;;;;;;;9.70;6.60;;;;;;;18.22;100.00;100809.38;105689;1254;73855;-41
2023/07/04 00:54:59;;;;;;;7.20;6.50;;;;;;;18.17;100.00;100811.88;105694;1255;63931;-44
2023/07/04 00:57:31;;;;;;;13.30;7.40;;;;;;;18.10;100.00;100812.36;105654;1258;70704;-42
2023/07/04 01:00:17;;;;;;;12.10;6.70;;;;;;;18.05;100.00;100811.21;105668;1257;60530;-43
2023/07/04 01:02:47;;;;;;;10.50;6.60;;;;;;;17.99;100.00;100812.66;105736;1254;60351;-43
2023/07/04 01:05:20;;;;;;;7.40;6.40;;;;;;;17.92;100.00;100813.27;105710;1260;73864;-44
2023/07/04 01:07:52;;;;;;;10.40;6.90;;;;;;;17.86;100.00;100818.96;105665;1258;63932;-41
2023/07/04 01:10:25;;;;;;;8.60;7.50;;;;;;;17.80;100.00;100816.41;105756;1259;71411;-42
2023/07/04 01:12:53;;;;;;;13.90;7.80;;;;;;;17.75;100.00;100815.73;105693;1254;60831;-42
2023/07/04 01:15:23;;;;;;;11.60;7.10;;;;;;;17.75;100.00;100812.81;105667;1256;60355;-42
2023/07/04 01:17:52;;;;;;;7.90;7.00;;;;;;;17.74;100.00;100807.09;105683;1259;72639;-42
2023/07/04 01:20:20;;;;;;;9.80;6.70;;;;;;;17.73;100.00;100808.70;105671;1253;64175;-44
2023/07/04 01:23:16;;;;;;;12.60;7.60;;;;;;;17.70;100.00;100804.64;105644;1253;72618;-42
2023/07/04 01:25:50;;;;;;;12.60;8.30;;;;;;;17.70;100.00;100798.19;105661;1257;61670;-41
2023/07/04 01:28:18;;;;;;;8.90;7.40;;;;;;;17.69;100.00;100800.84;105943;1256;60418;-42
2023/07/04 01:30:46;;;;;;;10.60;8.00;;;;;;;17.68;100.00;100798.44;105795;1254;72694;-42
2023/07/04 01:33:13;;;;;;;11.90;8.60;;;;;;;17.67;100.00;100802.66;105765;1254;63197;-42
2023/07/04 01:35:41;;;;;;;13.20;8.50;;;;;;;17.66;100.00;100797.66;105647;1254;71428;-45
2023/07/04 01:38:09;;;;;;;12.60;7.40;;;;;;;17.62;100.00;100801.64;105713;1254;60560;-41
2023/07/04 01:40:37;;;;;;;8.40;7.60;;;;;;;17.57;100.00;100799.25;105845;1257;60364;-43
2023/07/04 01:43:05;;;;;;;10.20;7.40;;;;;;;17.51;100.00;100806.65;105816;1253;73869;-43
2023/07/04 01:45:33;;;;;;;8.20;7.20;;;;;;;17.46;100.00;100809.48;105855;1255;63905;-44
2023/07/04 01:48:01;;;;;;;9.20;7.10;;;;;;;17.44;100.00;100811.33;105800;1253;71399;-43
2023/07/04 01:50:29;;;;;;;11.20;8.90;;;;;;;17.42;100.00;100813.83;105795;1256;60667;-43
2023/07/04 01:52:57;;;;;;;14.70;7.90;;;;;;;17.44;100.00;100808.88;105933;1253;60425;-43
2023/07/04 01:55:25;;;;;;;10.50;8.70;;;;;;;17.47;100.00;100806.64;105870;1253;73843;-45
2023/07/04 01:57:53;;;;;;;9.50;7.30;;;;;;;17.48;100.00;100803.48;105844;1253;65432;-44
2023/07/04 02:00:22;;;;;;;10.40;7.40;;;;;;;17.48;100.00;100803.97;105809;1254;71702;-43
2023/07/04 02:02:56;;;;;;;;;;;;;;;17.50;100.00;100803.39;105873;1253;61546;-46
2023/07/04 02:05:24;;;;;;;9.70;8.70;;;;;;;17.52;100.00;100802.59;105915;1254;60329;-43
2023/07/04 02:07:52;;;;;;;9.20;7.70;;;;;;;17.53;100.00;100799.92;105847;1257;73820;-42
2023/07/04 02:10:20;;;;;;;13.00;8.30;;;;;;;17.53;100.00;100800.45;105849;1252;63450;-41
2023/07/04 02:12:48;;;;;;;8.40;7.40;;;;;;;17.54;100.00;100798.50;105863;1256;71473;-42
2023/07/04 02:15:16;;;;;;;8.70;6.90;;;;;;;17.55;100.00;100801.95;105816;1254;60530;-41
2023/07/04 02:17:44;;;;;;;9.50;8.00;;;;;;;17.55;100.00;100807.02;105843;1256;60580;-44
2023/07/04 02:20:12;;;;;;;8.80;7.30;;;;;;;17.56;100.00;100808.23;105803;1254;72632;-43
2023/07/04 02:22:41;;;;;;;9.30;7.10;;;;;;;17.58;100.00;100809.54;105831;1253;64127;-46
2023/07/04 02:25:09;;;;;;;8.90;7.70;;;;;;;17.58;100.00;100811.95;105849;1253;71656;-43
2023/07/04 02:27:37;;;;;;;9.80;7.40;;;;;;;17.60;100.00;100807.67;105669;1253;60694;-41
2023/07/04 02:30:06;;;;;;;12.40;9.30;;;;;;;17.63;100.00;100808.27;105668;1258;60445;-42
2023/07/04 02:32:34;;;;;;;11.30;9.00;;;;;;;17.67;100.00;100810.14;105695;1253;73802;-43
2023/07/04 02:35:03;;;;;;;11.80;9.00;;;;;;;17.74;100.00;100810.73;105633;1253;64613;-44
2023/07/04 02:37:31;;;;;;;11.20;7.80;;;;;;;17.82;100.00;100810.55;105694;1255;71433;-45
2023/07/04 02:39:59;;;;;;;12.20;8.60;;;;;;;17.91;100.00;100803.05;105721;1253;61708;-46
2023/07/04 02:42:28;;;;;;;10.40;8.40;;;;;;;17.98;100.00;100796.45;105642;1254;60427;-50
2023/07/04 02:44:56;;;;;;;12.20;8.40;;;;;;;18.05;100.00;100799.30;105567;1254;73832;-45
2023/07/04 02:47:26;;;;;;;12.60;8.80;;;;;;;18.13;100.00;100797.04;105725;1254;65219;-44
2023/07/04 02:49:58;;;;;;;11.90;8.20;;;;;;;18.23;100.00;100792.23;105705;1259;72611;-42
2023/07/04 02:52:25;;;;;;;11.80;9.10;;;;;;;18.32;100.00;100791.83;105656;1256;60464;-44
2023/07/04 02:54:54;;;;;;;11.80;9.10;;;;;;;18.42;100.00;100795.76;105866;1253;60533;-42
2023/07/04 02:57:22;;;;;;;12.10;8.10;;;;;;;18.50;100.00;100793.27;105672;1253;73844;-42
2023/07/04 02:59:50;;;;;;;13.50;8.60;;;;;;;18.59;100.00;100796.36;105698;1254;64321;-42
2023/07/04 03:02:19;;;;;;;10.10;9.20;;;;;;;18.66;100.00;100792.18;105648;1253;72652;-42
2023/07/04 03:04:51;;;;;;;15.90;8.90;;;;;;;18.73;100.00;100796.42;105677;1255;60770;-42
2023/07/04 03:07:20;;;;;;;11.20;9.00;;;;;;;18.80;100.00;100797.65;105688;1259;60455;-43
2023/07/04 03:09:48;;;;;;;15.10;8.90;;;;;;;18.86;100.00;100802.98;105685;1253;72009;-45
2023/07/04 03:12:18;;;;;;;13.60;8.50;;;;;;;18.90;100.00;100804.72;105655;1253;64294;-43
2023/07/04 03:14:47;;;;;;;18.00;9.20;;;;;;;18.93;100.00;100808.06;105699;1254;73198;-42
2023/07/04 03:17:15;;;;;;;13.90;8.70;;;;;;;18.97;100.00;100811.02;105622;1254;60547;-44
2023/07/04 03:19:45;;;;;;;16.10;8.50;;;;;;;19.02;100.00;100812.23;105682;1257;60536;-42
2023/07/04 03:22:13;;;;;;;14.00;8.50;;;;;;;19.04;100.00;100821.19;105620;1254;73782;-42
2023/07/04 03:24:40;;;;;;;11.20;9.50;;;;;;;19.08;100.00;100825.23;105655;1258;65325;-45
2023/07/04 03:27:09;;;;;;;9.80;8.80;;;;;;;19.11;100.00;100834.34;105656;1254;70554;-42
2023/07/04 03:29:37;;;;;;;10.60;8.50;;;;;;;19.15;100.00;100837.81;105642;1259;60577;-45
2023/07/04 03:32:05;;;;;;;14.10;7.90;;;;;;;19.23;100.00;100847.41;105659;1254;60414;-42
2023/07/04 03:34:33;;;;;;;8.60;7.80;;;;;;;19.32;100.00;100850.67;105740;1254;72589;-41
2023/07/04 03:37:01;;;;;;;12.30;8.30;;;;;;;19.40;100.00;100854.44;105693;1257;64042;-44
2023/07/04 03:39:28;;;;;;;9.20;8.10;;;;;;;19.53;100.00;100854.70;105662;1254;71851;-43
2023/07/04 03:41:56;;;;;;;9.00;8.10;;;;;;;19.66;100.00;100856.49;105609;1258;61710;-43
2023/07/04 03:44:24;;;;;;;9.80;8.80;;;;;;;19.82;100.00;100861.50;105669;1253;60352;-43
2023/07/04 03:46:51;;;;;;;11.50;9.70;;;;;;;20.00;100.00;100869.86;105679;1253;72636;-43
2023/07/04 03:49:19;;;;;;;10.00;9.10;;;;;;;20.28;100.00;100875.26;105622;1259;65185;-45
2023/07/04 03:51:47;;;;;;;12.10;8.60;;;;;;;20.58;100.00;100884.20;105675;1253;72603;-44
2023/07/04 03:54:14;;;;;;;11.30;8.50;;;;;;;20.83;100.00;100899.38;105680;1259;60624;-45
2023/07/04 03:56:42;;;;;;;10.50;8.40;;;;;;;21.04;100.00;100923.35;105668;1258;60338;-44
2023/07/04 03:59:09;;;;;;;11.90;9.00;;;;;;;21.17;100.00;100950.49;105658;1258;72867;-44
2023/07/04 04:01:37;;;;;;;12.60;7.90;;;;;;;21.37;100.00;100974.86;105658;1258;64090;-45
2023/07/04 04:04:05;;;;;;;9.10;7.70;;;;;;;21.68;100.00;100995.62;105659;1256;71489;-45
2023/07/04 04:06:33;;;;;;;13.40;7.90;;;;;;;21.97;100.00;101021.06;105684;1254;60476;-46
2023/07/04 04:09:00;;;;;;;11.40;8.30;;;;;;;22.22;100.00;101063.36;105654;1258;60346;-46
2023/07/04 04:11:28;;;;;;;15.60;7.80;;;;;;;22.37;100.00;101109.11;105653;1253;73955;-44
2023/07/04 04:13:55;;;;;;;9.50;7.30;;;;;;;22.43;100.00;101154.14;105640;1255;63907;-44
2023/07/04 04:16:23;;;;;;;11.70;7.40;;;;;;;22.43;100.00;101182.45;105622;1259;71390;-45
2023/07/04 04:18:51;;;;;;;8.90;6.80;;;;;;;22.46;100.00;101189.48;105639;1254;60539;-45
2023/07/04 04:21:19;;;;;;;9.30;7.10;;;;;;;22.56;100.00;101180.65;105682;1253;60541;-45
2023/07/04 04:23:47;;;;;;;6.50;5.90;;;;;;;22.66;100.00;101152.31;105660;1258;72733;-43
2023/07/04 04:26:15;;;;;;;7.90;7.00;;;;;;;22.65;100.00;101090.08;105622;1253;65079;-41
2023/07/04 04:28:42;;;;;;;7.70;6.90;;;;;;;22.65;100.00;101041.17;105626;1253;72678;-42
2023/07/04 04:31:11;;;;;;;7.20;6.50;;;;;;;22.69;100.00;101007.36;105625;1254;60945;-44
2023/07/04 04:33:40;;;;;;;11.00;6.90;;;;;;;22.75;100.00;100963.91;105700;1253;60965;-43
2023/07/04 04:36:07;;;;;;;8.10;6.90;;;;;;;22.71;100.00;100909.47;105650;1258;72104;-42
2023/07/04 04:38:36;;;;;;;12.90;7.20;;;;;;;22.62;100.00;100883.27;105647;1258;63934;-41
2023/07/04 04:41:08;;;;;;;8.10;6.10;;;;;;;22.65;100.00;100895.61;105036;1255;792572;-43
2023/07/04 04:46:02;;;;;;;8.80;5.70;;;;;;;22.97;100.00;100899.38;102697;1295;601325;-44
2023/07/04 04:48:35;;;;;;;10.00;6.40;;;;;;;23.03;100.00;100823.71;104921;1267;59330;-44
2023/07/04 04:51:07;;;;;;;8.10;6.60;;;;;;;23.18;100.00;100792.42;104905;1269;59337;-46
2023/07/04 04:53:39;;;;;;;6.90;6.20;;;;;;;23.42;100.00;100748.83;104923;1269;71879;-43
2023/07/04 04:56:07;;;;;;;7.60;6.10;;;;;;;23.68;100.00;100710.58;104887;1264;64099;-43
2023/07/04 04:58:35;;;;;;;8.00;7.00;;;;;;;23.97;100.00;100664.38;104688;1269;251221;-45
2023/07/04 05:01:23;;;;;;;7.00;6.40;;;;;;;24.04;100.00;100575.59;105154;1263;60785;-43
2023/07/04 05:03:54;;;;;;;7.10;6.00;;;;;;;24.13;100.00;100528.77;105681;1256;59304;-44
2023/07/04 05:06:24;;;;;;;12.60;5.90;;;;;;;24.31;100.00;100516.11;105616;1260;71042;-44
2023/07/04 05:08:52;;;;;;;6.60;6.00;;;;;;;24.52;100.00;100482.63;105629;1260;63919;-45
2023/07/04 05:11:20;;;;;;;6.90;5.80;;;;;;;24.65;100.00;100459.56;105654;1257;72673;-43
2023/07/04 05:13:48;;;;;;;7.10;6.30;;;;;;;24.76;100.00;100444.82;105621;1257;59714;-43
2023/07/04 05:16:18;;;;;;;7.30;5.80;;;;;;;24.75;100.00;100446.46;105602;1258;60000;-44
2023/07/04 05:18:46;;;;;;;6.70;5.90;;;;;;;24.62;100.00;100452.73;105593;1257;71800;-43
2023/07/04 05:21:17;;;;;;;7.70;6.20;;;;;;;24.50;100.00;100458.80;105597;1258;63873;-43
2023/07/04 05:23:47;;;;;;;8.40;6.30;;;;;;;24.65;100.00;100465.42;105592;1258;72726;-45
2023/07/04 05:26:20;;;;;;;8.70;6.10;;;;;;;24.95;100.00;100462.41;105627;1257;59802;-45
2023/07/04 05:28:48;;;;;;;6.80;6.00;;;;;;;25.22;100.00;100463.11;105592;1257;59628;-44
2023/07/04 05:31:17;;;;;;;6.30;5.80;;;;;;;25.44;100.00;100456.09;105620;1257;71779;-46
2023/07/04 05:33:45;;;;;;;6.50;5.90;;;;;;;25.69;100.00;100455.61;105603;1261;65198;-44
2023/07/04 05:36:18;;;;;;;6.80;6.20;;;;;;;25.94;100.00;100463.46;105529;1260;72800;-45
2023/07/04 05:38:47;;;;;;;8.40;5.80;;;;;;;26.11;100.00;100473.20;105644;1257;59724;-45
2023/07/04 05:41:16;;;;;;;8.10;6.00;;;;;;;26.35;100.00;100483.41;105604;1258;59731;-42
2023/07/04 05:43:44;;;;;;;7.70;5.80;;;;;;;26.48;100.00;100504.97;105633;1255;71747;-44
2023/07/04 05:46:12;;;;;;;6.00;5.50;;;;;;;26.50;100.00;100518.59;105618;1257;64203;-42
2023/07/04 05:48:40;;;;;;;8.90;5.90;;;;;;;26.46;100.00;100531.52;105574;1257;71394;-44
2023/07/04 05:51:09;;;;;;;6.50;5.90;;;;;;;26.44;100.00;100537.18;105629;1257;59675;-45
2023/07/04 05:53:38;;;;;;;12.90;6.00;;;;;;;26.50;100.00;100536.44;105604;1262;59547;-42
2023/07/04 05:56:07;;;;;;;10.30;5.30;;;;;;;26.78;100.00;100531.48;105613;1257;71782;-44
2023/07/04 05:58:35;;;;;;;7.00;6.00;;;;;;;27.15;100.00;100526.33;105599;1257;65385;-43
2023/07/04 06:01:11;;;;;;;9.30;6.90;;;;;;;27.45;100.00;100540.02;105629;1258;71452;-45
2023/07/04 06:03:38;;;;;;;7.40;6.50;;;;;;;27.39;100.00;100586.81;105591;1257;60070;-46
2023/07/04 06:06:15;;;;;;;6.10;5.50;;;;;;;27.23;100.00;100613.52;105637;1261;59634;-44
2023/07/04 06:08:42;;;;;;;10.50;6.60;;;;;;;27.10;100.00;100619.76;105615;1257;72984;-45
2023/07/04 06:11:10;;;;;;;6.40;5.50;;;;;;;26.87;100.00;100630.36;105583;1257;63952;-44
2023/07/04 06:13:38;;;;;;;6.60;5.70;;;;;;;26.79;100.00;100625.20;105565;1257;71728;-44
2023/07/04 06:16:05;;;;;;;9.60;5.60;;;;;;;26.88;100.00;100614.32;105550;1263;59730;-44
2023/07/04 06:18:34;;;;;;;7.30;6.40;;;;;;;26.99;100.00;100611.31;105604;1257;60461;-43
2023/07/04 06:21:12;;;;;;;6.20;5.60;;;;;;;27.19;100.00;100616.15;105541;1257;71878;-45
2023/07/04 06:23:41;;;;;;;7.70;5.70;;;;;;;27.30;100.00;100619.79;105598;1258;64033;-43
2023/07/04 06:26:09;;;;;;;6.30;5.70;;;;;;;27.47;100.00;100619.61;105591;1257;72601;-45
2023/07/04 06:28:37;;;;;;;6.10;5.50;;;;;;;27.59;100.00;100619.48;105595;1262;60507;-44
2023/07/04 06:31:11;;;;;;;5.40;4.90;;;;;;;27.60;100.00;100630.33;105614;1258;59599;-45
2023/07/04 17:04:30;;;;;;;5.90;3.30;;;;;;;32.39;51.49;100481.05;102716;1292;600231;-42
2023/07/04 17:06:58;;;;;;;4.40;4.00;;;;;;;32.29;52.40;100525.90;104936;1270;60050;-45
2023/07/04 17:09:25;;;;;;;3.70;3.20;;;;;;;32.15;52.40;100518.27;105110;1268;59266;-43
2023/07/04 17:11:53;;;;;;;4.20;3.30;;;;;;;31.96;52.16;100513.98;104873;1269;71088;-45
2023/07/04 17:14:21;;;;;;;3.70;3.40;;;;;;;31.77;52.55;100537.00;104840;1269;63925;-45
2023/07/04 17:16:52;;;;;;;6.70;3.60;;;;;;;31.62;53.11;100554.52;104844;1266;71400;-48
2023/07/04 17:19:19;;;;;;;7.40;3.40;;;;;;;31.39;52.85;100547.81;105015;1268;240651;-47
2023/07/04 17:21:47;;;;;;;6.10;3.80;;;;;;;31.14;53.07;100567.80;105143;1268;60022;-42
2023/07/04 17:24:15;;;;;;;5.40;4.10;;;;;;;30.91;53.49;100582.70;105142;1263;72171;-45
2023/07/04 17:26:42;;;;;;;6.70;4.40;;;;;;;30.60;54.03;100606.47;105635;1261;65180;-45
2023/07/04 17:29:10;;;;;;;13.30;5.60;;;;;;;30.29;54.94;100638.29;105596;1256;71442;-44
2023/07/04 17:31:38;;;;;;;6.10;4.60;;;;;;;30.02;55.83;100660.53;105573;1257;59619;-46
2023/07/04 17:34:06;;;;;;;4.10;3.80;;;;;;;29.73;58.05;100702.95;105629;1256;60013;-45
2023/07/04 17:36:33;;;;;;;9.80;4.00;;;;;;;29.33;62.37;100754.35;105624;1256;72325;-48
2023/07/04 17:39:01;;;;;;;9.00;4.60;;;;;;;28.87;66.26;100761.77;105365;1255;64022;-44
2023/07/04 17:41:29;;;;;;;5.80;4.70;;;;;;;28.43;70.75;100767.80;105634;1256;71748;-46
2023/07/04 17:43:57;;;;;;;7.20;5.40;;;;;;;28.05;78.57;100777.69;105642;1258;59746;-44
2023/07/04 17:46:26;;;;;;;10.30;5.70;;;;;;;27.67;95.49;100788.75;105622;1260;59608;-45
2023/07/04 17:48:54;;;;;;;8.50;5.20;;;;;;;27.30;100.00;100796.61;105621;1256;71816;-44
2023/07/04 17:51:23;;;;;;;6.50;4.70;;;;;;;26.92;100.00;100811.41;105565;1257;65258;-45
2023/07/04 17:53:50;;;;;;;4.70;4.30;;;;;;;26.53;100.00;100810.61;105639;1260;72604;-49
2023/07/04 17:56:20;;;;;;;7.40;4.40;;;;;;;26.18;100.00;100791.66;105594;1260;60861;-45
2023/07/04 17:58:48;;;;;;;7.60;4.20;;;;;;;25.88;100.00;100763.72;105639;1260;60205;-42
2023/07/04 18:01:16;;;;;;;7.80;4.40;;;;;;;25.63;100.00;100730.34;105683;1257;72262;-46
2023/07/04 18:03:45;;;;;;;6.40;4.50;;;;;;;25.37;100.00;100689.52;105666;1256;64085;-44
2023/07/04 18:06:14;;;;;;;4.90;4.40;;;;;;;25.12;100.00;100662.69;105670;1257;71459;-45
2023/07/04 18:08:42;;;;;;;9.40;5.10;;;;;;;24.90;100.00;100639.08;105637;1256;60025;-45
2023/07/04 18:11:24;;;;;;;7.50;4.60;;;;;;;24.71;100.00;100624.98;105620;1260;59623;-43
2023/07/04 18:13:54;;;;;;;7.40;6.20;;;;;;;24.50;100.00;100614.02;105616;1256;73083;-45
2023/07/04 18:16:23;;;;;;;7.70;5.60;;;;;;;24.31;100.00;100605.52;105626;1257;64015;-43
2023/07/04 18:18:51;;;;;;;14.70;5.80;;;;;;;24.13;100.00;100603.64;105608;1258;71397;-43
2023/07/04 18:21:21;;;;;;;9.40;6.20;;;;;;;23.95;100.00;100607.06;105603;1256;60160;-45
2023/07/04 18:23:55;;;;;;;12.60;6.60;;;;;;;23.79;100.00;100611.56;105615;1257;59976;-44
2023/07/04 18:26:24;;;;;;;8.00;6.90;;;;;;;23.63;100.00;100612.68;105622;1256;71825;-45
2023/07/04 18:28:53;;;;;;;8.30;6.90;;;;;;;23.50;100.00;100616.77;105610;1260;65450;-43
2023/07/04 18:31:23;;;;;;;8.90;7.10;;;;;;;23.37;100.00;100629.23;105595;1257;71404;-45
2023/07/04 18:33:53;;;;;;;10.10;7.50;;;;;;;23.27;100.00;100644.41;105610;1256;60592;-43
2023/07/04 18:36:22;;;;;;;12.90;7.50;;;;;;;23.16;100.00;100655.70;105590;1257;60106;-42
2023/07/04 18:38:50;;;;;;;9.70;7.00;;;;;;;23.05;100.00;100671.21;105606;1260;73022;-44
2023/07/04 18:41:25;;;;;;;9.60;6.30;;;;;;;22.96;100.00;100702.61;105594;1257;64028;-43
2023/07/04 18:43:53;;;;;;;10.80;6.20;;;;;;;22.85;100.00;100748.90;105614;1256;71409;-44
2023/07/04 18:46:22;;;;;;;6.80;6.20;;;;;;;22.74;100.00;100806.52;105598;1256;60723;-44
2023/07/04 18:48:50;;;;;;;9.70;6.00;;;;;;;22.64;100.00;100882.61;105594;1255;60066;-42
2023/07/04 18:51:20;;;;;;;9.60;6.30;;;;;;;22.55;100.00;100955.64;105623;1257;72987;-42
2023/07/04 18:53:49;;;;;;;9.50;6.30;;;;;;;22.45;100.00;101012.17;105606;1258;65178;-43
2023/07/04 18:56:17;;;;;;;8.70;6.30;;;;;;;22.34;100.00;101053.17;105578;1256;71853;-45
2023/07/04 18:58:44;;;;;;;11.90;6.40;;;;;;;22.25;100.00;101093.95;105633;1256;60463;-43
2023/07/04 19:01:20;;;;;;;11.40;5.60;;;;;;;22.16;100.00;101125.23;105568;1260;59642;-44
2023/07/04 19:03:47;;;;;;;8.40;5.70;;;;;;;22.09;100.00;101147.59;105617;1257;71789;-44
2023/07/04 19:06:17;;;;;;;12.70;5.90;;;;;;;22.04;100.00;101160.66;105595;1260;64041;-46
2023/07/04 19:08:46;;;;;;;7.40;5.70;;;;;;;22.00;100.00;101163.55;105595;1257;71389;-42
2023/07/04 19:11:15;;;;;;;11.20;5.50;;;;;;;21.97;100.00;101164.56;105347;1257;60436;-46
2023/07/04 19:14:10;;;;;;;6.60;5.30;;;;;;;21.94;100.00;101161.24;105735;1256;59363;-46
2023/07/04 19:16:40;;;;;;;8.00;5.60;;;;;;;21.90;100.00;101162.02;105611;1256;71784;-43
2023/07/04 19:19:08;;;;;;;9.60;6.70;;;;;;;21.86;100.00;101159.75;105618;1260;63952;-45
2023/07/04 19:21:36;;;;;;;10.80;5.90;;;;;;;21.84;100.00;101151.27;105622;1256;71840;-43
2023/07/04 19:24:05;;;;;;;11.30;6.10;;;;;;;21.81;100.00;101137.69;105593;1256;60371;-45
2023/07/04 19:26:32;;;;;;;6.10;5.50;;;;;;;21.78;100.00;101113.95;105623;1256;60008;-42
2023/07/04 19:29:04;;;;;;;8.90;5.40;;;;;;;21.75;100.00;101090.23;105580;1256;72210;-42
2023/07/04 19:31:32;;;;;;;9.90;5.80;;;;;;;21.73;100.00;101066.70;105595;1258;64502;-42
2023/07/04 19:34:00;;;;;;;9.90;6.30;;;;;;;21.69;100.00;101055.13;105607;1260;71436;-45
2023/07/04 19:36:27;;;;;;;8.40;5.60;;;;;;;21.65;100.00;101045.84;105580;1256;60627;-44
2023/07/04 19:38:55;;;;;;;6.70;5.40;;;;;;;21.61;100.00;101043.95;105376;1256;59529;-44
2023/07/04 19:41:23;;;;;;;9.70;5.60;;;;;;;21.56;100.00;101048.45;105520;1260;73049;-44
2023/07/04 19:43:52;;;;;;;8.50;6.60;;;;;;;21.49;100.00;101051.59;105576;1256;63854;-42
2023/07/04 19:46:19;;;;;;;9.10;6.40;;;;;;;21.42;100.00;101052.17;105624;1256;71779;-43
2023/07/04 19:48:47;;;;;;;10.20;6.10;;;;;;;21.37;100.00;101056.16;105593;1260;60381;-45
2023/07/04 19:51:19;;;;;;;13.60;6.30;;;;;;;21.31;100.00;101068.89;105614;1260;59632;-46
2023/07/04 19:53:48;;;;;;;9.30;5.50;;;;;;;21.25;100.00;101079.41;105626;1255;71849;-47
2023/07/04 19:56:18;;;;;;;9.30;5.80;;;;;;;21.19;100.00;101083.41;105629;1260;65990;-44
2023/07/04 19:58:46;;;;;;;7.30;5.90;;;;;;;21.13;100.00;101098.44;105670;1259;71603;-46
2023/07/04 20:01:25;;;;;;;8.90;7.00;;;;;;;21.06;100.00;101110.73;105573;1256;60364;-44
2023/07/04 20:03:53;;;;;;;11.30;5.90;;;;;;;21.01;100.00;101118.05;105645;1256;59998;-42
2023/07/04 20:06:21;;;;;;;9.70;5.80;;;;;;;20.95;100.00;101125.20;105612;1256;71757;-45
2023/07/04 20:08:51;;;;;;;11.80;6.30;;;;;;;20.89;100.00;101134.77;105627;1260;65148;-44
2023/07/04 20:11:19;;;;;;;9.40;5.10;;;;;;;20.85;100.00;101144.30;105603;1256;71373;-44
2023/07/04 20:13:47;;;;;;;13.90;5.80;;;;;;;20.79;100.00;101155.95;105563;1261;59653;-42
2023/07/04 20:16:18;;;;;;;12.40;5.80;;;;;;;20.76;100.00;101165.58;105628;1257;59711;-43
2023/07/04 20:18:46;;;;;;;9.70;5.30;;;;;;;20.73;100.00;101160.13;105603;1255;71824;-44
2023/07/04 20:21:14;;;;;;;8.30;5.70;;;;;;;20.72;100.00;101151.76;105652;1257;64305;-45
2023/07/04 20:23:42;;;;;;;10.70;5.20;;;;;;;20.71;100.00;101145.33;105644;1260;71977;-43
2023/07/04 20:26:12;;;;;;;11.30;5.60;;;;;;;20.68;100.00;101142.63;105641;1257;59772;-43
2023/07/04 20:28:41;;;;;;;8.50;6.60;;;;;;;20.66;100.00;101144.85;105633;1256;59584;-43
2023/07/04 20:31:09;;;;;;;9.60;6.10;;;;;;;20.63;100.00;101139.77;105632;1260;71559;-42
2023/07/04 20:33:37;;;;;;;7.10;5.50;;;;;;;20.60;100.00;101136.74;105631;1257;63933;-45
2023/07/04 20:36:05;;;;;;;6.20;5.60;;;;;;;20.57;100.00;101138.64;105658;1257;72795;-44
2023/07/04 20:38:34;;;;;;;9.20;5.70;;;;;;;20.52;100.00;101141.48;105619;1260;61674;-44
2023/07/04 20:41:06;;;;;;;6.60;5.50;;;;;;;20.47;100.00;101148.41;105596;1260;59597;-45
2023/07/04 20:43:35;;;;;;;6.80;5.60;;;;;;;20.41;100.00;101154.84;105630;1260;72372;-43
2023/07/04 20:46:03;;;;;;;7.30;6.10;;;;;;;20.35;100.00;101158.26;105604;1257;63962;-45
2023/07/04 20:48:31;;;;;;;7.00;5.30;;;;;;;20.32;100.00;101163.16;105627;1256;72591;-41
2023/07/04 20:51:04;;;;;;;11.20;6.00;;;;;;;20.27;100.00;101168.27;105607;1257;60438;-44
2023/07/04 20:53:33;;;;;;;10.40;5.20;;;;;;;20.22;100.00;101170.13;105691;1256;59525;-44
2023/07/04 20:56:02;;;;;;;7.60;4.90;;;;;;;20.18;100.00;101177.51;105591;1260;72984;-44
2023/07/04 20:58:30;;;;;;;9.80;6.10;;;;;;;20.14;100.00;101182.05;105625;1257;65312;-43
2023/07/04 21:00:58;;;;;;;12.80;6.20;;;;;;;20.11;100.00;101182.56;105578;1257;72675;-43
2023/07/04 21:03:25;;;;;;;8.70;5.60;;;;;;;20.07;100.00;101183.40;105570;1261;60384;-43
2023/07/04 21:05:54;;;;;;;9.10;5.70;;;;;;;20.05;100.00;101178.95;105617;1262;59698;-47
2023/07/04 21:08:25;;;;;;;11.00;6.20;;;;;;;20.01;100.00;101181.10;105417;1257;71757;-41
2023/07/04 21:11:03;;;;;;;9.20;5.70;;;;;;;19.97;100.00;101175.50;105505;1257;63925;-45
2023/07/04 21:13:32;;;;;;;15.90;5.90;;;;;;;19.93;100.00;101174.61;105617;1260;72678;-42
2023/07/04 21:16:09;;;;;;;11.90;6.00;;;;;;;19.91;100.00;101169.46;105633;1262;60556;-43
2023/07/04 21:18:37;;;;;;;10.70;5.60;;;;;;;19.87;100.00;101164.02;105609;1260;60342;-42
2023/07/04 21:21:06;;;;;;;7.90;5.40;;;;;;;19.83;100.00;101157.87;105568;1260;72370;-43
2023/07/04 21:23:34;;;;;;;6.50;5.80;;;;;;;19.79;100.00;101148.58;105600;1260;65183;-43
2023/07/04 21:26:06;;;;;;;11.70;5.50;;;;;;;19.75;100.00;101138.42;105605;1257;72672;-43
2023/07/04 21:28:35;;;;;;;14.50;5.50;;;;;;;19.74;100.00;101130.80;105604;1261;60559;-45
2023/07/04 21:31:09;;;;;;;11.10;5.90;;;;;;;19.74;100.00;101128.36;105628;1262;60413;-45
2023/07/04 21:33:39;;;;;;;12.80;5.80;;;;;;;19.72;100.00;101117.42;105613;1257;72627;-43
2023/07/04 21:36:08;;;;;;;11.40;5.70;;;;;;;19.71;100.00;101113.45;105618;1260;63939;-43
2023/07/04 21:38:36;;;;;;;12.00;5.50;;;;;;;19.70;100.00;101110.67;105618;1256;71383;-42
2023/07/04 21:41:05;;;;;;;7.90;6.00;;;;;;;19.69;100.00;101105.63;105649;1256;60297;-46
2023/07/04 21:43:33;;;;;;;10.70;5.90;;;;;;;19.66;100.00;101102.95;105598;1255;60537;-44
2023/07/04 21:46:03;;;;;;;7.90;5.70;;;;;;;19.63;100.00;101097.16;105576;1261;72136;-43
2023/07/04 21:48:31;;;;;;;15.10;6.10;;;;;;;19.60;100.00;101096.78;105661;1257;63480;-43
2023/07/04 21:51:00;;;;;;;7.90;5.50;;;;;;;19.57;100.00;101091.30;105596;1262;71423;-43